Time;durP1;ratioP1;P1;durP2;ratioP2;P2;SDS_P1;SDS_P2;PMS_P1;PMS_P2;Temp;Humidity;BMP_temperature;BMP_pressure;BME280_temperature;BME280_humidity;BME280_pressure;Samples;Min_cycle;Max_cycle;Signal;HPM_P1;HPM_P2
2023/08/14 00:01:50;;;;;;;6.03;3.35;;;15.40;99.90;;;;;;5077120;28;20042;-61
2023/08/14 00:04:16;;;;;;;6.65;3.40;;;15.30;99.90;;;;;;5075792;28;20051;-61
2023/08/14 00:06:42;;;;;;;6.40;3.63;;;15.40;99.90;;;;;;5076603;28;20036;-61
2023/08/14 00:09:07;;;;;;;8.32;3.67;;;15.30;99.90;;;;;;5094871;28;20423;-61
2023/08/14 00:11:33;;;;;;;5.20;3.20;;;15.40;99.90;;;;;;5093794;28;20039;-62
2023/08/14 00:13:59;;;;;;;6.28;3.25;;;15.40;99.90;;;;;;5076667;28;20052;-61
2023/08/14 00:16:25;;;;;;;6.97;3.30;;;15.40;99.90;;;;;;5059716;28;20464;-62
2023/08/14 00:18:51;;;;;;;7.90;3.58;;;15.40;99.90;;;;;;5075683;28;20127;-62
2023/08/14 00:21:17;;;;;;;8.30;3.30;;;15.40;99.90;;;;;;5076448;28;20050;-61
2023/08/14 00:23:43;;;;;;;6.35;3.35;;;15.30;99.90;;;;;;5075145;28;20483;-62
2023/08/14 00:26:11;;;;;;;7.68;3.70;;;15.40;99.90;;;;;;5059178;28;20253;-61
2023/08/14 00:28:37;;;;;;;6.47;3.90;;;15.40;99.90;;;;;;5076049;28;20076;-61
2023/08/14 00:31:03;;;;;;;9.75;3.67;;;15.40;99.90;;;;;;5075644;28;20590;-61
2023/08/14 00:33:29;;;;;;;8.27;3.35;;;15.40;99.90;;;;;;5075673;28;20075;-62
2023/08/14 00:35:54;;;;;;;7.47;3.70;;;15.40;99.90;;;;;;5076201;28;20043;-62
2023/08/14 00:38:20;;;;;;;8.90;3.83;;;15.30;99.90;;;;;;5075366;28;20051;-62
2023/08/14 00:40:46;;;;;;;9.27;4.15;;;15.40;99.90;;;;;;5075543;28;20460;-62
2023/08/14 00:43:12;;;;;;;10.85;3.80;;;15.40;99.90;;;;;;5094114;28;20043;-62
2023/08/14 00:45:38;;;;;;;6.82;3.67;;;15.40;99.90;;;;;;5092944;28;20089;-61
2023/08/14 00:48:04;;;;;;;8.60;3.70;;;15.40;99.90;;;;;;5076134;28;20135;-62
2023/08/14 00:50:30;;;;;;;10.50;4.22;;;15.40;99.90;;;;;;5093518;28;20393;-61
2023/08/14 00:52:59;;;;;;;8.00;4.07;;;15.40;99.90;;;;;;5058421;28;20059;-61
2023/08/14 00:55:28;;;;;;;8.55;4.05;;;15.40;99.90;;;;;;5092737;28;20044;-61
2023/08/14 00:57:54;;;;;;;6.80;3.40;;;15.40;99.90;;;;;;5094128;28;20044;-61
2023/08/14 01:00:28;;;;;;;8.57;4.38;;;15.40;99.90;;;;;;5092780;28;20138;-61
2023/08/14 01:02:54;;;;;;;8.60;4.75;;;15.40;99.90;;;;;;5075807;28;20032;-61
2023/08/14 01:05:23;;;;;;;10.88;4.07;;;15.40;99.90;;;;;;5093391;28;20048;-62
2023/08/14 01:07:49;;;;;;;8.00;4.20;;;15.40;99.90;;;;;;5074642;28;20548;-61
2023/08/14 01:10:14;;;;;;;7.70;4.13;;;15.40;99.90;;;;;;5075216;28;20075;-61
2023/08/14 01:12:52;;;;;;;6.55;3.88;;;15.40;99.90;;;;;;5075464;28;20119;-61
2023/08/14 01:15:45;;;;;;;5.95;3.65;;;15.40;99.90;;;;;;5074686;28;20048;-61
2023/08/14 01:18:15;;;;;;;7.32;3.70;;;15.30;99.90;;;;;;5086992;28;20048;-62
2023/08/14 01:20:42;;;;;;;9.82;3.72;;;15.30;99.90;;;;;;5092801;28;20036;-62
2023/08/14 01:23:37;;;;;;;7.78;4.05;;;15.30;99.90;;;;;;5092857;28;20030;-61
2023/08/14 01:26:03;;;;;;;5.90;3.63;;;15.30;99.90;;;;;;5093189;28;20485;-61
2023/08/14 01:28:29;;;;;;;6.93;3.42;;;15.30;99.90;;;;;;5074194;28;20032;-62
2023/08/14 01:30:55;;;;;;;6.10;3.45;;;15.20;99.90;;;;;;5075218;28;20558;-61
2023/08/14 01:33:21;;;;;;;7.63;4.22;;;15.30;99.90;;;;;;5092976;28;20035;-62
2023/08/14 01:35:53;;;;;;;11.75;4.47;;;15.20;99.90;;;;;;5092212;28;20483;-62
2023/08/14 01:38:34;;;;;;;9.80;4.10;;;15.20;99.90;;;;;;5074995;28;20558;-61
2023/08/14 01:41:21;;;;;;;7.03;3.67;;;15.20;99.90;;;;;;5093516;28;20036;-61
2023/08/14 01:43:55;;;;;;;6.60;3.42;;;15.10;99.90;;;;;;5058055;28;20047;-61
2023/08/14 01:46:21;;;;;;;6.45;3.47;;;15.10;99.90;;;;;;5058479;28;20443;-61
2023/08/14 01:48:49;;;;;;;7.47;3.80;;;15.20;99.90;;;;;;5056927;28;20056;-61
2023/08/14 01:51:17;;;;;;;6.63;3.30;;;15.20;99.90;;;;;;5092846;28;20040;-61
2023/08/14 01:53:43;;;;;;;8.27;3.38;;;15.10;99.90;;;;;;5074290;28;20075;-61
2023/08/14 01:56:08;;;;;;;6.75;3.78;;;15.10;99.90;;;;;;5091873;28;20083;-61
2023/08/14 01:58:34;;;;;;;8.25;4.03;;;15.10;99.90;;;;;;5074470;28;20119;-62
2023/08/14 02:01:00;;;;;;;6.38;3.35;;;15.00;99.90;;;;;;5074645;28;20036;-62
2023/08/14 02:03:25;;;;;;;6.32;3.53;;;15.10;99.90;;;;;;5091150;28;20071;-61
2023/08/14 02:05:51;;;;;;;6.63;3.60;;;15.10;99.90;;;;;;5092442;28;20381;-61
2023/08/14 02:08:17;;;;;;;7.70;3.97;;;15.00;99.90;;;;;;5057480;28;20127;-61
2023/08/14 02:10:42;;;;;;;8.70;3.60;;;15.00;99.90;;;;;;5073658;28;20051;-62
2023/08/14 02:13:08;;;;;;;7.07;3.38;;;15.00;99.90;;;;;;5092102;28;20050;-62
2023/08/14 02:15:34;;;;;;;6.40;3.75;;;15.00;99.90;;;;;;5074271;28;20047;-61
2023/08/14 02:17:59;;;;;;;7.25;3.83;;;15.00;99.90;;;;;;5092016;28;20132;-61
2023/08/14 02:20:25;;;;;;;7.15;3.90;;;15.00;99.90;;;;;;5074142;28;20432;-61
2023/08/14 02:22:51;;;;;;;8.30;3.78;;;15.00;99.90;;;;;;5073886;28;20036;-61
2023/08/14 02:25:17;;;;;;;6.10;4.22;;;15.00;99.90;;;;;;5073373;28;20028;-61
2023/08/14 02:27:43;;;;;;;7.72;4.28;;;15.10;99.90;;;;;;5074516;28;20040;-62
2023/08/14 02:30:08;;;;;;;8.07;4.40;;;15.10;99.90;;;;;;5074041;28;20488;-61
2023/08/14 02:32:34;;;;;;;7.93;3.97;;;15.10;99.90;;;;;;5090814;28;20024;-61
2023/08/14 02:35:05;;;;;;;7.30;4.15;;;15.10;99.90;;;;;;5074195;28;20040;-62
2023/08/14 02:37:31;;;;;;;6.78;4.13;;;15.20;99.90;;;;;;5056787;28;20031;-62
2023/08/14 02:39:56;;;;;;;10.77;4.20;;;15.20;99.90;;;;;;5092555;28;20389;-62
2023/08/14 02:42:22;;;;;;;6.60;3.65;;;15.20;99.90;;;;;;5073582;28;20032;-62
2023/08/14 02:44:50;;;;;;;9.48;4.18;;;15.30;99.90;;;;;;5091229;28;20051;-61
2023/08/14 02:47:16;;;;;;;6.65;3.85;;;15.30;99.90;;;;;;5073805;28;20040;-61
2023/08/14 02:49:42;;;;;;;9.50;4.32;;;15.30;99.90;;;;;;5056867;28;20048;-62
2023/08/14 02:52:08;;;;;;;10.20;4.80;;;15.30;99.90;;;;;;5073069;28;20040;-62
2023/08/14 02:54:33;;;;;;;7.28;3.88;;;15.40;99.90;;;;;;5057134;28;20043;-62
2023/08/14 02:56:59;;;;;;;10.57;5.07;;;15.40;99.90;;;;;;5073793;28;20051;-61
2023/08/14 02:59:25;;;;;;;7.55;3.22;;;15.40;99.90;;;;;;5091216;28;20813;-61
2023/08/14 03:01:51;;;;;;;7.72;4.07;;;15.40;99.90;;;;;;5091640;28;20412;-62
2023/08/14 03:04:17;;;;;;;7.80;4.10;;;15.30;99.90;;;;;;5073519;28;20043;-61
2023/08/14 03:06:43;;;;;;;8.23;4.45;;;15.30;99.90;;;;;;5072871;28;20048;-62
2023/08/14 03:09:09;;;;;;;8.80;4.47;;;15.30;99.90;;;;;;5057121;28;20046;-61
2023/08/14 03:11:35;;;;;;;8.45;4.43;;;15.30;99.90;;;;;;5056914;28;20044;-62
2023/08/14 03:14:01;;;;;;;9.88;4.45;;;15.40;99.90;;;;;;5056640;28;20062;-62
2023/08/14 03:16:26;;;;;;;7.78;3.70;;;15.30;99.90;;;;;;5091617;28;20072;-62
2023/08/14 03:18:52;;;;;;;8.75;4.30;;;15.30;99.90;;;;;;5093526;28;20059;-61
2023/08/14 03:21:18;;;;;;;9.52;4.63;;;15.30;99.90;;;;;;5076773;28;20048;-61
2023/08/14 03:23:45;;;;;;;9.70;4.78;;;15.20;99.90;;;;;;5095227;28;20393;-62
2023/08/14 03:26:10;;;;;;;9.63;4.28;;;15.20;99.90;;;;;;5077223;28;20043;-61
2023/08/14 03:28:36;;;;;;;8.27;4.50;;;15.10;99.90;;;;;;5076690;28;20043;-62
2023/08/14 03:31:02;;;;;;;9.07;4.20;;;15.10;99.90;;;;;;5077824;28;20056;-61
2023/08/14 03:33:27;;;;;;;13.13;5.10;;;15.10;99.90;;;;;;5094772;28;20036;-61
2023/08/14 03:35:53;;;;;;;9.93;4.32;;;15.10;99.90;;;;;;5076270;28;20132;-62
2023/08/14 03:38:20;;;;;;;6.25;3.78;;;15.10;99.90;;;;;;5095481;28;20504;-62
2023/08/14 03:40:45;;;;;;;9.05;4.10;;;15.00;99.90;;;;;;5076455;28;20111;-62
2023/08/14 03:43:11;;;;;;;9.07;4.28;;;15.00;99.90;;;;;;5094964;28;20131;-61
2023/08/14 03:45:37;;;;;;;10.23;4.68;;;15.00;99.90;;;;;;5076991;28;20043;-62
2023/08/14 03:48:03;;;;;;;9.43;5.13;;;15.00;99.90;;;;;;5094520;28;20147;-62
2023/08/14 03:50:29;;;;;;;8.90;5.32;;;14.90;99.90;;;;;;5076586;28;20056;-61
2023/08/14 03:52:55;;;;;;;7.38;4.75;;;14.90;99.90;;;;;;5095263;28;20039;-62
2023/08/14 03:55:21;;;;;;;9.00;5.43;;;14.90;99.90;;;;;;5075792;28;20040;-62
2023/08/14 03:57:46;;;;;;;7.95;5.15;;;14.90;99.90;;;;;;5094861;28;20032;-61
2023/08/14 04:00:13;;;;;;;9.68;5.10;;;14.90;99.90;;;;;;5094692;28;20094;-62
2023/08/14 04:02:39;;;;;;;8.77;5.65;;;14.90;99.90;;;;;;5093890;28;20044;-62
2023/08/14 04:05:05;;;;;;;8.68;5.65;;;14.80;99.90;;;;;;5094441;28;20057;-62
2023/08/14 04:07:31;;;;;;;8.77;5.35;;;14.80;99.90;;;;;;5060167;28;20384;-62
2023/08/14 04:09:57;;;;;;;9.13;5.57;;;14.80;99.90;;;;;;5076184;28;20127;-62
2023/08/14 04:12:23;;;;;;;11.40;6.07;;;14.80;99.90;;;;;;5059940;28;20039;-62
2023/08/14 04:14:49;;;;;;;10.02;5.40;;;14.80;99.90;;;;;;5094279;28;20062;-62
2023/08/14 04:17:15;;;;;;;13.10;6.13;;;14.80;99.90;;;;;;5093865;28;20461;-61
2023/08/14 04:19:41;;;;;;;10.63;6.60;;;14.80;99.90;;;;;;5094556;28;20397;-61
2023/08/14 04:22:07;;;;;;;9.75;6.47;;;14.80;99.90;;;;;;5094271;28;20039;-62
2023/08/14 04:24:33;;;;;;;9.93;7.20;;;14.70;99.90;;;;;;5093544;28;20489;-61
2023/08/14 04:26:58;;;;;;;11.05;7.05;;;14.70;99.90;;;;;;5076641;28;20051;-61
2023/08/14 04:29:24;;;;;;;12.48;7.38;;;14.70;99.90;;;;;;5076019;28;20044;-61
2023/08/14 04:31:50;;;;;;;9.90;6.30;;;14.70;99.90;;;;;;5075213;28;20397;-61
2023/08/14 04:34:15;;;;;;;10.65;6.70;;;14.70;99.90;;;;;;5059121;28;20051;-62
2023/08/14 04:36:41;;;;;;;12.70;7.35;;;14.70;99.90;;;;;;5094151;28;20047;-61
2023/08/14 04:39:09;;;;;;;10.27;6.80;;;14.80;99.90;;;;;;5075510;28;20042;-61
2023/08/14 04:41:35;;;;;;;13.20;7.93;;;14.80;99.90;;;;;;5075979;28;20388;-61
2023/08/14 04:44:01;;;;;;;11.73;8.07;;;14.80;99.90;;;;;;5075107;28;20173;-62
2023/08/14 04:46:32;;;;;;;12.65;7.80;;;14.80;99.90;;;;;;5075795;28;20051;-61
2023/08/14 04:48:59;;;;;;;11.25;6.85;;;14.90;99.90;;;;;;5075783;28;20068;-62
2023/08/14 04:51:25;;;;;;;10.60;6.80;;;14.80;99.90;;;;;;5058181;28;20485;-61
2023/08/14 04:53:52;;;;;;;9.70;6.80;;;14.90;99.90;;;;;;5075544;28;20040;-61
2023/08/14 04:56:18;;;;;;;12.60;7.00;;;14.90;99.90;;;;;;5075631;28;20044;-61
2023/08/14 04:58:44;;;;;;;10.63;7.20;;;14.90;99.90;;;;;;5075049;28;20150;-61
2023/08/14 05:01:10;;;;;;;11.68;7.70;;;14.90;99.90;;;;;;5093454;28;20036;-62
2023/08/14 05:03:36;;;;;;;11.50;7.20;;;14.90;99.90;;;;;;5093407;28;20032;-61
2023/08/14 05:06:02;;;;;;;9.43;6.47;;;14.90;99.90;;;;;;5075035;28;20507;-61
2023/08/14 05:08:27;;;;;;;11.90;7.78;;;15.00;99.90;;;;;;5058882;28;20047;-61
2023/08/14 05:10:54;;;;;;;11.32;6.95;;;15.00;99.90;;;;;;5093685;28;20040;-62
2023/08/14 05:13:25;;;;;;;9.52;6.13;;;15.00;99.90;;;;;;5074366;28;20051;-62
2023/08/14 05:15:51;;;;;;;12.18;6.45;;;15.00;99.90;;;;;;5058854;28;20545;-62
2023/08/14 05:18:18;;;;;;;9.52;6.18;;;15.10;99.90;;;;;;5093175;28;20044;-61
2023/08/14 05:20:48;;;;;;;11.63;8.23;;;15.10;99.90;;;;;;5074566;28;20040;-62
2023/08/14 05:23:15;;;;;;;11.68;7.88;;;15.10;99.90;;;;;;5093119;28;20477;-62
2023/08/14 05:25:44;;;;;;;10.13;7.35;;;15.20;99.90;;;;;;5075040;28;20039;-61
2023/08/14 05:28:11;;;;;;;10.75;7.20;;;15.20;99.90;;;;;;5092509;28;20040;-61
2023/08/14 05:30:41;;;;;;;13.18;8.32;;;15.20;99.90;;;;;;5093087;28;20111;-62
2023/08/14 05:33:06;;;;;;;12.40;7.95;;;15.30;99.90;;;;;;5092795;28;20036;-62
2023/08/14 05:35:32;;;;;;;11.40;7.75;;;15.30;99.90;;;;;;5091882;28;20042;-62
2023/08/14 05:37:59;;;;;;;10.57;7.72;;;15.30;99.90;;;;;;5093108;28;20046;-62
2023/08/14 05:40:26;;;;;;;10.90;7.43;;;15.40;99.90;;;;;;5092077;28;20032;-63
2023/08/14 05:43:04;;;;;;;10.43;7.93;;;15.40;99.90;;;;;;5074167;28;20036;-62
2023/08/14 05:45:35;;;;;;;12.00;7.88;;;15.50;99.90;;;;;;5088606;28;20500;-62
2023/08/14 05:48:02;;;;;;;12.00;7.80;;;15.50;99.90;;;;;;5057258;28;20520;-62
2023/08/14 05:50:28;;;;;;;10.40;7.38;;;15.50;99.90;;;;;;5074228;28;20480;-64
2023/08/14 05:52:56;;;;;;;10.35;6.38;;;15.50;99.90;;;;;;5075004;28;20078;-62
2023/08/14 05:55:22;;;;;;;9.32;6.32;;;15.60;99.90;;;;;;5091397;28;20075;-62
2023/08/14 05:57:48;;;;;;;9.93;6.10;;;15.60;99.90;;;;;;5091621;28;20039;-62
2023/08/14 06:00:15;;;;;;;9.80;6.72;;;15.70;99.90;;;;;;5072524;28;20040;-62
2023/08/14 06:02:40;;;;;;;11.32;6.57;;;15.60;99.90;;;;;;5091690;28;20035;-62
2023/08/14 06:05:08;;;;;;;9.40;6.28;;;15.70;99.90;;;;;;5057704;28;20047;-62
2023/08/14 06:07:34;;;;;;;8.88;6.63;;;15.80;99.90;;;;;;5074348;28;20489;-62
2023/08/14 06:10:00;;;;;;;8.30;5.82;;;15.80;99.90;;;;;;5057371;28;20043;-62
2023/08/14 06:12:25;;;;;;;11.27;7.65;;;15.80;99.90;;;;;;5074574;28;20066;-62
2023/08/14 06:14:51;;;;;;;10.30;6.70;;;15.90;99.90;;;;;;5092332;28;20036;-62
2023/08/14 06:17:16;;;;;;;10.02;6.75;;;15.90;99.90;;;;;;5073075;28;20040;-62
2023/08/14 06:19:43;;;;;;;12.75;7.72;;;16.10;99.90;;;;;;5073643;28;20067;-62
2023/08/14 06:22:09;;;;;;;9.90;6.40;;;16.10;99.90;;;;;;5076288;28;20067;-62
2023/08/14 06:24:40;;;;;;;11.02;7.07;;;16.20;99.90;;;;;;5070915;28;20086;-62
2023/08/14 06:27:06;;;;;;;11.15;6.28;;;16.30;99.90;;;;;;5089367;28;20525;-62
2023/08/14 06:29:32;;;;;;;11.30;5.82;;;16.30;99.90;;;;;;5070722;28;20036;-62
2023/08/14 06:31:57;;;;;;;10.43;7.05;;;16.40;99.90;;;;;;5071428;28;20485;-62
2023/08/14 06:34:23;;;;;;;16.17;7.07;;;16.50;99.90;;;;;;5088859;28;20607;-62
2023/08/14 06:36:49;;;;;;;12.82;6.88;;;16.50;99.90;;;;;;5070489;28;20044;-62
2023/08/14 06:39:15;;;;;;;8.85;6.85;;;16.60;99.90;;;;;;5068961;28;20489;-62
2023/08/14 06:41:41;;;;;;;11.10;6.78;;;16.70;99.90;;;;;;5070280;28;20032;-62
2023/08/14 06:44:09;;;;;;;9.57;6.25;;;16.80;99.90;;;;;;5047716;28;20119;-62
2023/08/14 06:46:35;;;;;;;11.27;7.05;;;16.80;99.90;;;;;;5049781;28;20044;-62
2023/08/14 06:49:01;;;;;;;9.43;5.95;;;16.90;99.90;;;;;;5081952;28;20132;-63
2023/08/14 06:51:26;;;;;;;10.65;5.63;;;17.00;99.90;;;;;;5088369;28;20488;-62
2023/08/14 06:53:52;;;;;;;13.43;7.22;;;17.00;99.90;;;;;;5071796;28;20497;-62
2023/08/14 06:56:19;;;;;;;11.57;7.22;;;17.00;99.90;;;;;;5073825;28;20257;-62
2023/08/14 06:58:44;;;;;;;10.60;7.82;;;17.10;99.90;;;;;;5079487;28;20127;-62
2023/08/14 07:01:10;;;;;;;13.30;7.30;;;17.20;99.90;;;;;;5060917;28;20146;-62
2023/08/14 07:03:36;;;;;;;12.13;7.13;;;17.30;99.90;;;;;;5074184;28;20494;-62
2023/08/14 07:06:01;;;;;;;11.43;7.25;;;17.40;99.90;;;;;;5074027;28;20040;-62
2023/08/14 07:08:28;;;;;;;9.93;7.53;;;17.40;99.90;;;;;;5056760;28;20052;-62
2023/08/14 07:10:54;;;;;;;11.10;6.93;;;17.50;99.90;;;;;;5060401;28;20040;-62
2023/08/14 07:13:19;;;;;;;12.10;7.32;;;17.50;99.90;;;;;;5092112;28;20039;-62
2023/08/14 07:15:48;;;;;;;11.68;7.30;;;17.60;99.90;;;;;;5092851;28;20433;-63
2023/08/14 07:18:15;;;;;;;10.95;7.30;;;17.60;99.90;;;;;;5074668;28;20047;-63
2023/08/14 07:20:41;;;;;;;12.15;6.80;;;17.70;99.90;;;;;;5073774;28;20040;-63
2023/08/14 07:23:07;;;;;;;9.63;5.80;;;17.80;99.90;;;;;;5074694;28;20047;-62
2023/08/14 07:25:33;;;;;;;9.35;5.80;;;17.80;99.90;;;;;;5092874;28;20534;-62
2023/08/14 07:27:58;;;;;;;9.48;5.28;;;18.00;99.90;;;;;;5092373;28;20059;-62
2023/08/14 07:30:24;;;;;;;13.30;5.07;;;18.00;99.90;;;;;;5090740;28;20043;-62
2023/08/14 07:32:50;;;;;;;8.23;4.78;;;18.10;99.90;;;;;;5065216;28;20043;-62
2023/08/14 07:35:15;;;;;;;10.68;4.55;;;18.10;99.90;;;;;;5054325;28;20113;-62
2023/08/14 07:37:41;;;;;;;9.90;4.78;;;18.10;99.90;;;;;;5068640;28;20067;-62
2023/08/14 07:40:08;;;;;;;9.57;4.28;;;18.10;99.90;;;;;;5069496;28;20490;-63
2023/08/14 07:42:33;;;;;;;8.52;4.10;;;18.20;99.90;;;;;;5092126;28;20089;-62
2023/08/14 07:44:59;;;;;;;6.53;3.78;;;18.30;99.90;;;;;;5057331;28;20031;-63
2023/08/14 07:47:25;;;;;;;6.57;3.95;;;18.30;99.90;;;;;;5056711;28;20993;-62
2023/08/14 07:49:51;;;;;;;7.60;3.72;;;18.30;99.90;;;;;;5076089;28;20095;-62
2023/08/14 07:52:17;;;;;;;7.90;3.47;;;18.30;99.90;;;;;;5070426;28;20080;-62
2023/08/14 07:54:42;;;;;;;10.00;4.82;;;18.40;99.90;;;;;;5087168;28;20127;-62
2023/08/14 07:57:08;;;;;;;7.47;3.75;;;18.40;99.90;;;;;;5054863;28;20082;-62
2023/08/14 07:59:34;;;;;;;7.32;3.63;;;18.50;99.90;;;;;;5072291;28;20046;-62
2023/08/14 08:01:59;;;;;;;6.43;3.28;;;18.50;99.90;;;;;;5071592;28;20044;-62
2023/08/14 08:04:26;;;;;;;7.97;3.45;;;18.60;99.90;;;;;;5089644;28;21546;-62
2023/08/14 08:06:52;;;;;;;6.82;3.47;;;18.70;99.90;;;;;;5088164;28;20440;-62
2023/08/14 08:09:18;;;;;;;7.30;3.10;;;18.70;99.90;;;;;;5071679;28;20048;-63
2023/08/14 08:11:43;;;;;;;7.43;3.88;;;18.80;99.90;;;;;;5089827;28;20046;-62
2023/08/14 08:14:09;;;;;;;7.53;3.00;;;18.80;99.90;;;;;;5089908;28;20123;-62
2023/08/14 08:16:36;;;;;;;8.30;3.40;;;18.90;99.90;;;;;;5071167;28;20043;-62
2023/08/14 08:19:05;;;;;;;5.18;3.03;;;19.00;99.90;;;;;;5055928;28;20128;-62
2023/08/14 08:21:32;;;;;;;6.57;3.00;;;19.00;99.90;;;;;;5055452;28;20401;-62
2023/08/14 08:23:58;;;;;;;6.05;2.80;;;19.10;99.90;;;;;;5061140;28;20051;-61
2023/08/14 08:26:25;;;;;;;6.32;2.63;;;19.20;99.90;;;;;;5082814;28;20043;-62
2023/08/14 08:28:51;;;;;;;5.90;2.55;;;19.30;99.90;;;;;;5053901;28;20094;-62
2023/08/14 08:31:17;;;;;;;7.72;2.83;;;19.30;99.90;;;;;;5069828;28;20119;-62
2023/08/14 08:33:42;;;;;;;7.47;2.50;;;19.40;99.90;;;;;;5068054;28;20093;-62
2023/08/14 08:36:08;;;;;;;5.18;2.30;;;19.60;99.90;;;;;;5081963;28;20041;-62
2023/08/14 08:38:34;;;;;;;8.63;2.40;;;19.60;99.90;;;;;;5069826;28;20050;-62
2023/08/14 08:41:03;;;;;;;4.57;2.67;;;19.70;99.90;;;;;;5090444;28;20036;-62
2023/08/14 08:43:31;;;;;;;5.03;2.15;;;19.70;99.90;;;;;;5070337;28;20119;-62
2023/08/14 08:46:02;;;;;;;4.68;2.20;;;19.70;99.90;;;;;;5089461;28;20032;-62
2023/08/14 08:48:33;;;;;;;5.20;2.00;;;19.70;99.90;;;;;;5004565;28;1092076;-62
2023/08/14 08:50:59;;;;;;;5.47;2.20;;;19.70;99.90;;;;;;5061355;28;20054;-61
2023/08/14 08:53:25;;;;;;;5.60;2.35;;;19.70;99.90;;;;;;5090194;28;20032;-62
2023/08/14 08:55:51;;;;;;;4.85;1.80;;;19.70;99.90;;;;;;5072035;28;20063;-62
2023/08/14 08:58:18;;;;;;;3.55;1.45;;;19.70;99.90;;;;;;5071364;28;20040;-62
2023/08/14 09:00:44;;;;;;;3.63;1.60;;;19.70;99.90;;;;;;5072580;28;20074;-63
2023/08/14 09:03:10;;;;;;;3.88;1.65;;;19.70;99.90;;;;;;5072681;28;20071;-62
2023/08/14 09:05:36;;;;;;;3.97;1.73;;;19.70;99.90;;;;;;5089292;28;20051;-62
2023/08/14 09:08:03;;;;;;;4.60;1.80;;;19.80;99.90;;;;;;5072447;28;20079;-62
2023/08/14 09:10:29;;;;;;;4.07;1.95;;;19.90;99.90;;;;;;5054893;28;20051;-62
2023/08/14 09:12:58;;;;;;;5.60;1.80;;;19.80;99.90;;;;;;5053317;28;20377;-62
2023/08/14 09:15:24;;;;;;;7.43;2.15;;;19.80;99.90;;;;;;5072498;28;20115;-62
2023/08/14 09:17:51;;;;;;;6.95;2.17;;;19.80;99.90;;;;;;5054959;28;20036;-62
2023/08/14 09:20:18;;;;;;;3.90;1.77;;;19.80;99.90;;;;;;5071513;28;20048;-62
2023/08/14 09:22:44;;;;;;;4.07;1.85;;;19.80;99.90;;;;;;5071915;28;20042;-62
2023/08/14 09:25:10;;;;;;;4.47;1.52;;;19.90;99.90;;;;;;5072861;28;20396;-62
2023/08/14 09:27:37;;;;;;;6.00;1.73;;;20.10;99.90;;;;;;5079649;28;20045;-62
2023/08/14 09:30:06;;;;;;;4.05;1.65;;;20.30;99.90;;;;;;5053276;28;20163;-62
2023/08/14 09:32:32;;;;;;;5.05;1.30;;;20.40;99.90;;;;;;5051557;28;20089;-62
2023/08/14 09:34:59;;;;;;;6.10;1.63;;;20.50;99.90;;;;;;5052956;28;20793;-62
2023/08/14 09:37:26;;;;;;;3.50;1.60;;;20.70;99.90;;;;;;5052394;28;20044;-62
2023/08/14 09:40:07;;;;;;;6.55;1.83;;;20.80;99.90;;;;;;5079268;28;20107;-62
2023/08/14 09:42:33;;;;;;;7.68;1.65;;;20.90;99.90;;;;;;5072971;28;20610;-62
2023/08/14 09:44:59;;;;;;;4.78;1.60;;;21.00;99.90;;;;;;5072463;28;20056;-62
2023/08/14 09:47:25;;;;;;;8.93;2.20;;;21.00;99.90;;;;;;5089945;28;20040;-62
2023/08/14 09:49:53;;;;;;;5.97;1.40;;;21.10;99.90;;;;;;5090122;28;20066;-62
2023/08/14 09:52:20;;;;;;;4.53;2.00;;;21.10;99.90;;;;;;5072250;28;20052;-62
2023/08/14 09:54:48;;;;;;;4.88;1.95;;;21.20;99.90;;;;;;5054506;28;20063;-62
2023/08/14 09:57:14;;;;;;;4.43;2.33;;;21.30;99.90;;;;;;5071122;28;20051;-62
2023/08/14 09:59:40;;;;;;;6.57;1.73;;;21.30;99.90;;;;;;5090370;28;20048;-62
2023/08/14 10:02:12;;;;;;;4.85;1.60;;;21.40;99.90;;;;;;5071308;28;20153;-62
2023/08/14 10:04:39;;;;;;;7.38;2.08;;;21.40;99.90;;;;;;5090194;28;20040;-62
2023/08/14 10:07:06;;;;;;;6.28;2.10;;;21.30;99.90;;;;;;5055410;28;20100;-63
2023/08/14 10:09:33;;;;;;;4.47;1.80;;;21.40;99.90;;;;;;5070105;28;20056;-63
2023/08/14 10:12:06;;;;;;;3.78;1.80;;;21.40;99.90;;;;;;5090205;28;20044;-63
2023/08/14 10:14:35;;;;;;;5.18;2.17;;;21.50;99.90;;;;;;5089296;28;20082;-63
2023/08/14 10:17:03;;;;;;;2.90;1.27;;;21.70;99.90;;;;;;5088031;28;20092;-64
2023/08/14 10:19:31;;;;;;;3.40;1.50;;;21.70;99.90;;;;;;5068262;28;20039;-63
2023/08/14 10:22:00;;;;;;;5.20;1.55;;;21.80;99.90;;;;;;5050157;28;20036;-63
2023/08/14 10:24:27;;;;;;;3.70;1.52;;;21.80;99.90;;;;;;5061862;28;20051;-63
2023/08/14 10:26:55;;;;;;;5.72;1.80;;;21.90;99.90;;;;;;5071299;28;20055;-63
2023/08/14 10:29:22;;;;;;;5.43;1.80;;;22.00;99.90;;;;;;5070523;28;20048;-63
2023/08/14 10:31:47;;;;;;;3.72;1.65;;;22.00;99.90;;;;;;5070897;28;20121;-63
2023/08/14 10:34:15;;;;;;;3.78;1.38;;;22.00;99.90;;;;;;5053217;28;20036;-63
2023/08/14 10:36:41;;;;;;;4.28;1.60;;;22.10;99.90;;;;;;5070011;28;20044;-63
2023/08/14 10:39:09;;;;;;;4.65;1.73;;;22.10;99.90;;;;;;5070090;28;20042;-63
2023/08/14 10:41:36;;;;;;;3.17;1.40;;;22.20;99.90;;;;;;5070967;28;20043;-63
2023/08/14 10:44:06;;;;;;;6.13;1.85;;;22.20;99.90;;;;;;5070384;28;20094;-63
2023/08/14 10:46:36;;;;;;;4.60;1.25;;;22.30;99.90;;;;;;5070991;28;20130;-63
2023/08/14 10:49:02;;;;;;;3.67;1.38;;;22.30;99.90;;;;;;5058336;28;20056;-64
2023/08/14 10:51:31;;;;;;;4.18;1.50;;;22.30;99.90;;;;;;5064246;28;20616;-63
2023/08/14 10:54:14;;;;;;;5.65;1.75;;;22.40;99.90;;;;;;5057351;28;20047;-63
2023/08/14 10:56:49;;;;;;;5.93;1.90;;;22.40;99.90;;;;;;5090901;28;20040;-63
2023/08/14 10:59:23;;;;;;;4.82;1.73;;;22.40;99.90;;;;;;5074001;28;20460;-63
2023/08/14 11:01:50;;;;;;;;;;;22.40;99.90;;;;;;5073844;28;20398;-63
2023/08/14 11:04:16;;;;;;;3.83;1.88;;;22.40;99.90;;;;;;5090555;28;19916;-62
2023/08/14 11:06:57;;;;;;;5.25;1.63;;;22.60;99.90;;;;;;5071332;28;20385;-64
2023/08/14 11:09:23;;;;;;;3.92;1.50;;;22.60;99.90;;;;;;5072637;28;20499;-62
2023/08/14 11:11:49;;;;;;;5.10;1.85;;;22.70;99.90;;;;;;5072612;28;20040;-62
2023/08/14 11:14:15;;;;;;;4.82;1.75;;;22.80;99.90;;;;;;5091624;28;20079;-62
2023/08/14 11:16:41;;;;;;;4.43;1.70;;;22.80;99.90;;;;;;5073637;28;20442;-62
2023/08/14 11:19:07;;;;;;;3.92;1.67;;;22.90;99.90;;;;;;5072880;28;20503;-62
2023/08/14 11:21:36;;;;;;;5.53;1.70;;;22.90;99.90;;;;;;5073609;28;20071;-62
2023/08/14 11:24:12;;;;;;;4.35;1.50;;;22.90;99.90;;;;;;5091892;28;20036;-62
2023/08/14 11:26:38;;;;;;;4.15;1.40;;;22.90;99.90;;;;;;5073205;28;20623;-63
2023/08/14 11:29:03;;;;;;;3.92;1.50;;;23.00;99.90;;;;;;5073916;28;20119;-63
2023/08/14 11:31:30;;;;;;;5.25;1.63;;;23.20;99.90;;;;;;5073249;28;20400;-62
2023/08/14 11:33:56;;;;;;;7.88;1.73;;;23.30;99.90;;;;;;5073014;28;20382;-62
2023/08/14 11:36:22;;;;;;;4.22;1.40;;;23.30;99.90;;;;;;5073330;28;20050;-62
2023/08/14 11:38:48;;;;;;;4.20;1.55;;;23.40;99.90;;;;;;5091774;28;20072;-62
2023/08/14 11:41:13;;;;;;;4.80;1.67;;;23.30;99.90;;;;;;5076339;28;20396;-62
2023/08/14 11:43:39;;;;;;;5.40;1.55;;;23.30;99.90;;;;;;5060524;28;20051;-62
2023/08/14 11:46:05;;;;;;;7.03;2.15;;;23.40;99.90;;;;;;5094770;28;20061;-62
2023/08/14 11:48:36;;;;;;;6.63;1.73;;;23.40;99.90;;;;;;5060190;28;20455;-62
2023/08/14 11:51:02;;;;;;;3.80;1.45;;;23.60;99.90;;;;;;5077191;28;20059;-62
2023/08/14 11:53:28;;;;;;;4.22;1.63;;;23.60;99.90;;;;;;5094234;28;20358;-62
2023/08/14 11:55:54;;;;;;;4.40;1.55;;;23.70;99.90;;;;;;5077234;28;20039;-62
2023/08/14 11:58:20;;;;;;;4.57;1.55;;;23.70;99.90;;;;;;5095017;28;20500;-62
2023/08/14 12:00:52;;;;;;;5.32;1.70;;;23.70;99.90;;;;;;5076228;28;20410;-62
2023/08/14 12:03:18;;;;;;;2.85;1.40;;;23.70;99.90;;;;;;5076880;28;20032;-62
2023/08/14 12:05:47;;;;;;;4.40;1.60;;;23.80;99.90;;;;;;5060086;28;20084;-62
2023/08/14 12:08:13;;;;;;;5.20;1.50;;;23.80;99.90;;;;;;5093917;28;20513;-62
2023/08/14 12:10:40;;;;;;;5.50;1.60;;;23.80;99.90;;;;;;5094926;28;20044;-62
2023/08/14 12:13:06;;;;;;;5.38;1.60;;;23.90;99.90;;;;;;5076424;28;20044;-62
2023/08/14 12:15:32;;;;;;;5.40;2.13;;;24.00;99.90;;;;;;5075765;28;20044;-62
2023/08/14 12:17:58;;;;;;;4.82;2.10;;;24.00;99.90;;;;;;5094674;28;20036;-62
2023/08/14 12:20:24;;;;;;;4.05;1.63;;;23.90;99.90;;;;;;5094474;28;20036;-62
2023/08/14 12:22:50;;;;;;;5.20;1.70;;;23.80;99.90;;;;;;5093716;28;20043;-62
2023/08/14 12:25:21;;;;;;;5.45;1.60;;;23.70;99.90;;;;;;5076270;28;20044;-62
2023/08/14 12:27:47;;;;;;;6.05;2.10;;;23.80;99.90;;;;;;5076447;28;20040;-62
2023/08/14 12:30:14;;;;;;;5.63;1.77;;;23.70;99.90;;;;;;5075248;28;20492;-62
2023/08/14 12:32:46;;;;;;;4.78;1.90;;;23.80;99.90;;;;;;5075966;28;20054;-62
2023/08/14 12:35:12;;;;;;;4.55;1.88;;;24.00;99.90;;;;;;5058754;28;20043;-62
2023/08/14 12:37:37;;;;;;;5.57;1.98;;;24.10;99.90;;;;;;5075910;28;20044;-62
2023/08/14 12:40:08;;;;;;;4.15;1.45;;;24.10;99.90;;;;;;5059700;28;20036;-62
2023/08/14 12:42:35;;;;;;;4.05;1.40;;;24.20;99.90;;;;;;5075153;28;20447;-63
2023/08/14 12:45:02;;;;;;;69.07;15.45;;;24.20;99.90;;;;;;5094188;28;20554;-62